sensor_id;sensor_type;location;lat;lon;timestamp;P1;durP1;ratioP1;P2;durP2;ratioP2
2998;SDS011;1509;51.964;7.628;2022-07-29T00:02:09;5.27;;;1.80;;
2998;SDS011;1509;51.964;7.628;2022-07-29T00:04:35;2.43;;;1.67;;
2998;SDS011;1509;51.964;7.628;2022-07-29T00:07:02;4.83;;;1.77;;
2998;SDS011;1509;51.964;7.628;2022-07-29T00:09:28;6.20;;;1.90;;
2998;SDS011;1509;51.964;7.628;2022-07-29T00:11:54;2.80;;;1.60;;
2998;SDS011;1509;51.964;7.628;2022-07-29T00:14:23;3.20;;;2.20;;
2998;SDS011;1509;51.964;7.628;2022-07-29T00:16:49;2.70;;;1.70;;
2998;SDS011;1509;51.964;7.628;2022-07-29T00:19:15;3.80;;;1.80;;
2998;SDS011;1509;51.964;7.628;2022-07-29T00:21:40;3.50;;;1.60;;
2998;SDS011;1509;51.964;7.628;2022-07-29T00:24:06;3.93;;;2.00;;
2998;SDS011;1509;51.964;7.628;2022-07-29T00:26:32;2.10;;;1.40;;
2998;SDS011;1509;51.964;7.628;2022-07-29T00:28:58;4.50;;;2.30;;
2998;SDS011;1509;51.964;7.628;2022-07-29T00:31:24;4.17;;;1.93;;
2998;SDS011;1509;51.964;7.628;2022-07-29T00:33:50;2.90;;;1.53;;
2998;SDS011;1509;51.964;7.628;2022-07-29T00:36:16;4.57;;;2.27;;
2998;SDS011;1509;51.964;7.628;2022-07-29T00:38:42;3.80;;;1.40;;
2998;SDS011;1509;51.964;7.628;2022-07-29T00:41:10;3.70;;;2.10;;
2998;SDS011;1509;51.964;7.628;2022-07-29T00:43:36;2.57;;;1.63;;
2998;SDS011;1509;51.964;7.628;2022-07-29T00:46:02;9.10;;;3.00;;
2998;SDS011;1509;51.964;7.628;2022-07-29T00:48:28;4.20;;;1.90;;
2998;SDS011;1509;51.964;7.628;2022-07-29T00:50:53;3.07;;;1.80;;
2998;SDS011;1509;51.964;7.628;2022-07-29T00:53:22;2.93;;;1.47;;
2998;SDS011;1509;51.964;7.628;2022-07-29T00:55:49;3.10;;;1.60;;
2998;SDS011;1509;51.964;7.628;2022-07-29T00:58:15;3.37;;;2.23;;
2998;SDS011;1509;51.964;7.628;2022-07-29T01:00:41;3.47;;;1.90;;
2998;SDS011;1509;51.964;7.628;2022-07-29T01:03:07;5.10;;;2.10;;
2998;SDS011;1509;51.964;7.628;2022-07-29T01:05:33;9.53;;;1.93;;
2998;SDS011;1509;51.964;7.628;2022-07-29T01:07:59;7.20;;;2.23;;
2998;SDS011;1509;51.964;7.628;2022-07-29T01:10:26;3.33;;;1.90;;
2998;SDS011;1509;51.964;7.628;2022-07-29T01:12:55;3.67;;;1.80;;
2998;SDS011;1509;51.964;7.628;2022-07-29T01:15:23;3.67;;;1.90;;
2998;SDS011;1509;51.964;7.628;2022-07-29T01:20:31;2.20;;;1.60;;
2998;SDS011;1509;51.964;7.628;2022-07-29T01:32:05;2.53;;;2.13;;
2998;SDS011;1509;51.964;7.628;2022-07-29T01:37:05;3.30;;;2.27;;
2998;SDS011;1509;51.964;7.628;2022-07-29T01:39:43;3.97;;;2.00;;
2998;SDS011;1509;51.964;7.628;2022-07-29T01:42:14;2.50;;;1.83;;
2998;SDS011;1509;51.964;7.628;2022-07-29T01:45:37;3.30;;;2.07;;
2998;SDS011;1509;51.964;7.628;2022-07-29T01:47:43;3.57;;;1.93;;
2998;SDS011;1509;51.964;7.628;2022-07-29T01:50:14;6.73;;;1.90;;
2998;SDS011;1509;51.964;7.628;2022-07-29T01:52:45;2.83;;;2.03;;
2998;SDS011;1509;51.964;7.628;2022-07-29T01:55:17;4.10;;;2.37;;
2998;SDS011;1509;51.964;7.628;2022-07-29T01:57:47;7.10;;;2.10;;
2998;SDS011;1509;51.964;7.628;2022-07-29T02:00:14;6.23;;;2.60;;
2998;SDS011;1509;51.964;7.628;2022-07-29T02:02:42;4.50;;;2.10;;
2998;SDS011;1509;51.964;7.628;2022-07-29T02:05:11;3.67;;;2.20;;
2998;SDS011;1509;51.964;7.628;2022-07-29T02:07:42;3.43;;;1.70;;
2998;SDS011;1509;51.964;7.628;2022-07-29T02:10:11;2.83;;;1.97;;
2998;SDS011;1509;51.964;7.628;2022-07-29T02:12:38;3.60;;;2.23;;
2998;SDS011;1509;51.964;7.628;2022-07-29T02:15:05;3.63;;;2.13;;
2998;SDS011;1509;51.964;7.628;2022-07-29T02:17:40;3.50;;;1.83;;
2998;SDS011;1509;51.964;7.628;2022-07-29T02:20:09;5.13;;;2.37;;
2998;SDS011;1509;51.964;7.628;2022-07-29T02:22:37;4.13;;;2.07;;
2998;SDS011;1509;51.964;7.628;2022-07-29T02:25:06;5.67;;;2.17;;
2998;SDS011;1509;51.964;7.628;2022-07-29T02:27:34;2.30;;;2.10;;
2998;SDS011;1509;51.964;7.628;2022-07-29T02:30:00;4.50;;;2.67;;
2998;SDS011;1509;51.964;7.628;2022-07-29T02:32:29;2.93;;;1.90;;
2998;SDS011;1509;51.964;7.628;2022-07-29T02:34:56;3.40;;;2.30;;
2998;SDS011;1509;51.964;7.628;2022-07-29T02:37:23;4.37;;;2.63;;
2998;SDS011;1509;51.964;7.628;2022-07-29T02:39:51;2.87;;;1.87;;
2998;SDS011;1509;51.964;7.628;2022-07-29T02:42:19;3.27;;;2.07;;
2998;SDS011;1509;51.964;7.628;2022-07-29T02:44:47;3.50;;;2.20;;
2998;SDS011;1509;51.964;7.628;2022-07-29T02:47:17;6.60;;;2.03;;
2998;SDS011;1509;51.964;7.628;2022-07-29T02:49:52;4.03;;;2.43;;
2998;SDS011;1509;51.964;7.628;2022-07-29T02:55:25;3.73;;;1.80;;
2998;SDS011;1509;51.964;7.628;2022-07-29T03:00:43;7.43;;;2.40;;
2998;SDS011;1509;51.964;7.628;2022-07-29T03:03:12;3.50;;;2.40;;
2998;SDS011;1509;51.964;7.628;2022-07-29T03:05:40;3.53;;;2.30;;
2998;SDS011;1509;51.964;7.628;2022-07-29T03:08:07;3.83;;;2.10;;
2998;SDS011;1509;51.964;7.628;2022-07-29T03:10:35;2.77;;;1.80;;
2998;SDS011;1509;51.964;7.628;2022-07-29T03:13:04;2.83;;;2.20;;
2998;SDS011;1509;51.964;7.628;2022-07-29T03:15:30;5.47;;;2.40;;
2998;SDS011;1509;51.964;7.628;2022-07-29T03:17:57;3.80;;;2.03;;
2998;SDS011;1509;51.964;7.628;2022-07-29T03:20:23;4.67;;;2.50;;
2998;SDS011;1509;51.964;7.628;2022-07-29T03:22:49;2.80;;;1.70;;
2998;SDS011;1509;51.964;7.628;2022-07-29T03:25:19;4.60;;;2.60;;
2998;SDS011;1509;51.964;7.628;2022-07-29T03:27:45;3.17;;;2.37;;
2998;SDS011;1509;51.964;7.628;2022-07-29T03:30:15;4.50;;;2.37;;
2998;SDS011;1509;51.964;7.628;2022-07-29T03:32:41;2.93;;;1.83;;
2998;SDS011;1509;51.964;7.628;2022-07-29T03:35:07;3.50;;;2.30;;
2998;SDS011;1509;51.964;7.628;2022-07-29T03:37:33;5.93;;;2.57;;
2998;SDS011;1509;51.964;7.628;2022-07-29T03:40:02;5.87;;;2.30;;
2998;SDS011;1509;51.964;7.628;2022-07-29T03:42:31;4.53;;;2.43;;
2998;SDS011;1509;51.964;7.628;2022-07-29T03:44:59;4.13;;;2.40;;
2998;SDS011;1509;51.964;7.628;2022-07-29T03:47:30;3.20;;;2.40;;
2998;SDS011;1509;51.964;7.628;2022-07-29T03:49:59;6.20;;;2.57;;
2998;SDS011;1509;51.964;7.628;2022-07-29T03:52:29;4.00;;;2.67;;
2998;SDS011;1509;51.964;7.628;2022-07-29T03:54:55;3.80;;;2.60;;
2998;SDS011;1509;51.964;7.628;2022-07-29T03:57:23;4.80;;;2.37;;
2998;SDS011;1509;51.964;7.628;2022-07-29T03:59:52;9.20;;;2.53;;
2998;SDS011;1509;51.964;7.628;2022-07-29T04:02:18;4.57;;;2.53;;
2998;SDS011;1509;51.964;7.628;2022-07-29T04:04:48;4.50;;;2.77;;
2998;SDS011;1509;51.964;7.628;2022-07-29T04:07:14;3.00;;;2.40;;
2998;SDS011;1509;51.964;7.628;2022-07-29T04:09:40;5.20;;;3.37;;
2998;SDS011;1509;51.964;7.628;2022-07-29T04:12:07;4.00;;;2.27;;
2998;SDS011;1509;51.964;7.628;2022-07-29T04:14:33;2.80;;;2.30;;
2998;SDS011;1509;51.964;7.628;2022-07-29T04:17:00;4.70;;;2.13;;
2998;SDS011;1509;51.964;7.628;2022-07-29T04:19:26;8.83;;;2.60;;
2998;SDS011;1509;51.964;7.628;2022-07-29T04:21:52;4.60;;;2.47;;
2998;SDS011;1509;51.964;7.628;2022-07-29T04:24:18;4.00;;;2.57;;
2998;SDS011;1509;51.964;7.628;2022-07-29T04:26:45;2.67;;;2.47;;
2998;SDS011;1509;51.964;7.628;2022-07-29T04:29:11;4.10;;;2.60;;
2998;SDS011;1509;51.964;7.628;2022-07-29T04:31:39;6.67;;;2.30;;
2998;SDS011;1509;51.964;7.628;2022-07-29T04:34:05;2.63;;;1.93;;
2998;SDS011;1509;51.964;7.628;2022-07-29T04:36:30;7.20;;;2.70;;
2998;SDS011;1509;51.964;7.628;2022-07-29T04:38:56;4.47;;;2.53;;
2998;SDS011;1509;51.964;7.628;2022-07-29T04:41:22;4.60;;;2.03;;
2998;SDS011;1509;51.964;7.628;2022-07-29T04:43:48;2.43;;;2.03;;
2998;SDS011;1509;51.964;7.628;2022-07-29T04:46:14;8.37;;;3.10;;
2998;SDS011;1509;51.964;7.628;2022-07-29T04:48:39;5.50;;;2.67;;
2998;SDS011;1509;51.964;7.628;2022-07-29T04:51:05;4.60;;;2.43;;
2998;SDS011;1509;51.964;7.628;2022-07-29T04:53:30;6.43;;;2.90;;
2998;SDS011;1509;51.964;7.628;2022-07-29T04:55:56;4.77;;;2.60;;
2998;SDS011;1509;51.964;7.628;2022-07-29T04:58:22;4.13;;;2.50;;
2998;SDS011;1509;51.964;7.628;2022-07-29T05:00:48;3.63;;;2.50;;
2998;SDS011;1509;51.964;7.628;2022-07-29T05:03:14;4.03;;;2.83;;
2998;SDS011;1509;51.964;7.628;2022-07-29T05:05:40;3.97;;;2.47;;
2998;SDS011;1509;51.964;7.628;2022-07-29T05:08:05;5.47;;;3.07;;
2998;SDS011;1509;51.964;7.628;2022-07-29T05:10:31;4.57;;;2.90;;
2998;SDS011;1509;51.964;7.628;2022-07-29T05:12:58;4.20;;;2.37;;
2998;SDS011;1509;51.964;7.628;2022-07-29T05:15:24;4.90;;;2.30;;
2998;SDS011;1509;51.964;7.628;2022-07-29T05:17:50;4.27;;;2.60;;
2998;SDS011;1509;51.964;7.628;2022-07-29T05:20:15;3.30;;;2.20;;
2998;SDS011;1509;51.964;7.628;2022-07-29T05:22:41;2.90;;;2.10;;
2998;SDS011;1509;51.964;7.628;2022-07-29T05:25:07;2.97;;;2.30;;
2998;SDS011;1509;51.964;7.628;2022-07-29T05:27:34;5.50;;;2.50;;
2998;SDS011;1509;51.964;7.628;2022-07-29T05:30:00;4.47;;;2.53;;
2998;SDS011;1509;51.964;7.628;2022-07-29T05:32:26;3.97;;;2.60;;
2998;SDS011;1509;51.964;7.628;2022-07-29T05:34:51;4.13;;;2.80;;
2998;SDS011;1509;51.964;7.628;2022-07-29T05:37:20;3.30;;;2.30;;
2998;SDS011;1509;51.964;7.628;2022-07-29T05:39:46;3.33;;;2.57;;
2998;SDS011;1509;51.964;7.628;2022-07-29T05:42:12;8.53;;;2.77;;
2998;SDS011;1509;51.964;7.628;2022-07-29T05:44:38;3.90;;;2.33;;
2998;SDS011;1509;51.964;7.628;2022-07-29T05:47:04;3.23;;;2.40;;
2998;SDS011;1509;51.964;7.628;2022-07-29T05:49:30;3.60;;;2.30;;
2998;SDS011;1509;51.964;7.628;2022-07-29T05:51:56;3.30;;;2.23;;
2998;SDS011;1509;51.964;7.628;2022-07-29T05:54:21;3.90;;;2.47;;
2998;SDS011;1509;51.964;7.628;2022-07-29T05:56:47;6.10;;;2.70;;
2998;SDS011;1509;51.964;7.628;2022-07-29T05:59:12;3.80;;;1.90;;
2998;SDS011;1509;51.964;7.628;2022-07-29T06:01:38;6.67;;;2.70;;
2998;SDS011;1509;51.964;7.628;2022-07-29T06:04:05;5.57;;;3.00;;
2998;SDS011;1509;51.964;7.628;2022-07-29T06:06:31;4.07;;;2.50;;
2998;SDS011;1509;51.964;7.628;2022-07-29T06:08:58;4.53;;;2.47;;
2998;SDS011;1509;51.964;7.628;2022-07-29T06:11:24;7.80;;;2.60;;
2998;SDS011;1509;51.964;7.628;2022-07-29T06:13:49;3.87;;;2.37;;
2998;SDS011;1509;51.964;7.628;2022-07-29T06:16:15;7.40;;;2.20;;
2998;SDS011;1509;51.964;7.628;2022-07-29T06:18:40;4.30;;;2.50;;
2998;SDS011;1509;51.964;7.628;2022-07-29T06:21:09;5.63;;;2.63;;
2998;SDS011;1509;51.964;7.628;2022-07-29T06:23:38;4.10;;;2.87;;
2998;SDS011;1509;51.964;7.628;2022-07-29T06:26:04;5.77;;;2.87;;
2998;SDS011;1509;51.964;7.628;2022-07-29T06:28:30;5.00;;;3.03;;
2998;SDS011;1509;51.964;7.628;2022-07-29T06:30:57;5.27;;;3.40;;
2998;SDS011;1509;51.964;7.628;2022-07-29T06:33:22;2.70;;;2.37;;
2998;SDS011;1509;51.964;7.628;2022-07-29T06:35:48;4.67;;;2.60;;
2998;SDS011;1509;51.964;7.628;2022-07-29T06:38:14;4.07;;;2.67;;
2998;SDS011;1509;51.964;7.628;2022-07-29T06:40:41;4.10;;;3.17;;
2998;SDS011;1509;51.964;7.628;2022-07-29T06:43:28;2.60;;;1.90;;
2998;SDS011;1509;51.964;7.628;2022-07-29T06:45:56;2.60;;;2.40;;
2998;SDS011;1509;51.964;7.628;2022-07-29T06:48:23;4.63;;;2.70;;
2998;SDS011;1509;51.964;7.628;2022-07-29T06:50:49;7.57;;;2.40;;
2998;SDS011;1509;51.964;7.628;2022-07-29T06:53:14;7.03;;;2.70;;
2998;SDS011;1509;51.964;7.628;2022-07-29T06:55:40;6.20;;;2.70;;
2998;SDS011;1509;51.964;7.628;2022-07-29T06:58:06;4.60;;;3.50;;
2998;SDS011;1509;51.964;7.628;2022-07-29T07:00:32;4.70;;;3.50;;
2998;SDS011;1509;51.964;7.628;2022-07-29T07:02:58;4.37;;;2.40;;
2998;SDS011;1509;51.964;7.628;2022-07-29T07:05:23;3.40;;;2.50;;
2998;SDS011;1509;51.964;7.628;2022-07-29T07:07:49;4.83;;;2.10;;
2998;SDS011;1509;51.964;7.628;2022-07-29T07:10:15;3.07;;;2.67;;
2998;SDS011;1509;51.964;7.628;2022-07-29T07:12:40;4.70;;;3.43;;
2998;SDS011;1509;51.964;7.628;2022-07-29T07:15:06;3.37;;;2.37;;
2998;SDS011;1509;51.964;7.628;2022-07-29T07:17:32;5.27;;;2.90;;
2998;SDS011;1509;51.964;7.628;2022-07-29T07:19:59;7.53;;;2.90;;
2998;SDS011;1509;51.964;7.628;2022-07-29T07:22:24;4.80;;;2.37;;
2998;SDS011;1509;51.964;7.628;2022-07-29T07:24:50;3.43;;;2.70;;
2998;SDS011;1509;51.964;7.628;2022-07-29T07:27:15;5.80;;;3.10;;
2998;SDS011;1509;51.964;7.628;2022-07-29T07:29:41;6.33;;;3.10;;
2998;SDS011;1509;51.964;7.628;2022-07-29T07:32:07;4.07;;;2.97;;
2998;SDS011;1509;51.964;7.628;2022-07-29T07:34:33;5.43;;;2.53;;
2998;SDS011;1509;51.964;7.628;2022-07-29T07:36:58;7.30;;;3.03;;
2998;SDS011;1509;51.964;7.628;2022-07-29T07:39:24;4.90;;;3.10;;
2998;SDS011;1509;51.964;7.628;2022-07-29T07:41:51;5.00;;;3.27;;
2998;SDS011;1509;51.964;7.628;2022-07-29T07:44:17;2.90;;;2.30;;
2998;SDS011;1509;51.964;7.628;2022-07-29T07:46:42;7.30;;;3.03;;
2998;SDS011;1509;51.964;7.628;2022-07-29T07:49:09;6.90;;;3.67;;
2998;SDS011;1509;51.964;7.628;2022-07-29T07:51:38;6.23;;;3.50;;
2998;SDS011;1509;51.964;7.628;2022-07-29T07:54:03;5.90;;;3.23;;
2998;SDS011;1509;51.964;7.628;2022-07-29T07:56:29;4.70;;;2.63;;
2998;SDS011;1509;51.964;7.628;2022-07-29T07:58:55;4.37;;;2.53;;
2998;SDS011;1509;51.964;7.628;2022-07-29T08:01:21;6.33;;;3.37;;
2998;SDS011;1509;51.964;7.628;2022-07-29T08:03:48;4.97;;;2.60;;
2998;SDS011;1509;51.964;7.628;2022-07-29T08:06:16;6.40;;;2.50;;
2998;SDS011;1509;51.964;7.628;2022-07-29T08:08:42;7.60;;;3.50;;
2998;SDS011;1509;51.964;7.628;2022-07-29T08:11:08;5.17;;;2.93;;
2998;SDS011;1509;51.964;7.628;2022-07-29T08:13:33;3.73;;;2.50;;
2998;SDS011;1509;51.964;7.628;2022-07-29T08:15:59;8.30;;;3.00;;
2998;SDS011;1509;51.964;7.628;2022-07-29T08:18:37;8.07;;;3.20;;
2998;SDS011;1509;51.964;7.628;2022-07-29T08:21:03;3.03;;;2.73;;
2998;SDS011;1509;51.964;7.628;2022-07-29T08:23:29;3.57;;;2.70;;
2998;SDS011;1509;51.964;7.628;2022-07-29T08:26:03;4.83;;;2.70;;
2998;SDS011;1509;51.964;7.628;2022-07-29T08:28:36;3.27;;;2.57;;
2998;SDS011;1509;51.964;7.628;2022-07-29T08:31:05;4.50;;;2.43;;
2998;SDS011;1509;51.964;7.628;2022-07-29T08:33:31;6.20;;;2.70;;
2998;SDS011;1509;51.964;7.628;2022-07-29T08:35:57;7.27;;;2.57;;
2998;SDS011;1509;51.964;7.628;2022-07-29T08:38:23;9.07;;;3.33;;
2998;SDS011;1509;51.964;7.628;2022-07-29T08:40:51;8.43;;;2.50;;
2998;SDS011;1509;51.964;7.628;2022-07-29T08:43:17;6.90;;;2.93;;
2998;SDS011;1509;51.964;7.628;2022-07-29T08:45:44;3.93;;;2.23;;
2998;SDS011;1509;51.964;7.628;2022-07-29T08:48:11;5.57;;;2.60;;
2998;SDS011;1509;51.964;7.628;2022-07-29T08:50:38;4.53;;;2.63;;
2998;SDS011;1509;51.964;7.628;2022-07-29T08:53:07;9.47;;;3.00;;
2998;SDS011;1509;51.964;7.628;2022-07-29T08:55:36;5.10;;;2.80;;
2998;SDS011;1509;51.964;7.628;2022-07-29T08:58:05;5.40;;;2.80;;
2998;SDS011;1509;51.964;7.628;2022-07-29T09:00:32;5.77;;;3.40;;
2998;SDS011;1509;51.964;7.628;2022-07-29T09:03:00;4.40;;;2.30;;
2998;SDS011;1509;51.964;7.628;2022-07-29T09:05:26;5.97;;;2.50;;
2998;SDS011;1509;51.964;7.628;2022-07-29T09:07:53;5.03;;;2.70;;
2998;SDS011;1509;51.964;7.628;2022-07-29T09:10:19;4.30;;;2.60;;
2998;SDS011;1509;51.964;7.628;2022-07-29T09:12:44;5.17;;;2.50;;
2998;SDS011;1509;51.964;7.628;2022-07-29T09:15:10;4.27;;;2.23;;
2998;SDS011;1509;51.964;7.628;2022-07-29T09:17:40;9.60;;;3.00;;
2998;SDS011;1509;51.964;7.628;2022-07-29T09:20:11;9.60;;;2.80;;
2998;SDS011;1509;51.964;7.628;2022-07-29T09:22:38;5.53;;;2.73;;
2998;SDS011;1509;51.964;7.628;2022-07-29T09:25:04;5.17;;;3.17;;
2998;SDS011;1509;51.964;7.628;2022-07-29T09:27:30;4.60;;;2.40;;
2998;SDS011;1509;51.964;7.628;2022-07-29T09:29:57;4.73;;;2.73;;
2998;SDS011;1509;51.964;7.628;2022-07-29T09:32:24;6.50;;;2.40;;
2998;SDS011;1509;51.964;7.628;2022-07-29T09:34:51;7.40;;;2.93;;
2998;SDS011;1509;51.964;7.628;2022-07-29T09:37:36;5.83;;;3.43;;
2998;SDS011;1509;51.964;7.628;2022-07-29T09:40:10;4.80;;;2.40;;
2998;SDS011;1509;51.964;7.628;2022-07-29T09:42:41;4.00;;;2.27;;
2998;SDS011;1509;51.964;7.628;2022-07-29T09:45:06;5.37;;;2.93;;
2998;SDS011;1509;51.964;7.628;2022-07-29T09:50:12;4.33;;;2.90;;
2998;SDS011;1509;51.964;7.628;2022-07-29T09:52:46;9.40;;;3.20;;
2998;SDS011;1509;51.964;7.628;2022-07-29T09:55:16;8.10;;;2.70;;
2998;SDS011;1509;51.964;7.628;2022-07-29T09:57:42;6.77;;;3.60;;
2998;SDS011;1509;51.964;7.628;2022-07-29T10:00:10;5.23;;;2.40;;
2998;SDS011;1509;51.964;7.628;2022-07-29T10:02:42;4.60;;;2.70;;
2998;SDS011;1509;51.964;7.628;2022-07-29T10:05:30;4.13;;;2.50;;
2998;SDS011;1509;51.964;7.628;2022-07-29T10:07:55;3.57;;;2.60;;
2998;SDS011;1509;51.964;7.628;2022-07-29T10:10:29;4.03;;;2.70;;
2998;SDS011;1509;51.964;7.628;2022-07-29T10:13:00;5.57;;;3.20;;
2998;SDS011;1509;51.964;7.628;2022-07-29T10:15:29;8.97;;;3.20;;
2998;SDS011;1509;51.964;7.628;2022-07-29T10:17:57;6.13;;;3.37;;
2998;SDS011;1509;51.964;7.628;2022-07-29T10:20:24;4.90;;;3.67;;
2998;SDS011;1509;51.964;7.628;2022-07-29T10:22:51;10.33;;;3.50;;
2998;SDS011;1509;51.964;7.628;2022-07-29T10:25:18;5.87;;;2.83;;
2998;SDS011;1509;51.964;7.628;2022-07-29T10:27:44;6.67;;;3.20;;
2998;SDS011;1509;51.964;7.628;2022-07-29T10:30:12;6.47;;;3.50;;
2998;SDS011;1509;51.964;7.628;2022-07-29T10:32:53;7.63;;;4.40;;
2998;SDS011;1509;51.964;7.628;2022-07-29T10:44:02;5.40;;;3.43;;
2998;SDS011;1509;51.964;7.628;2022-07-29T10:46:39;5.53;;;3.50;;
2998;SDS011;1509;51.964;7.628;2022-07-29T10:49:10;7.40;;;3.30;;
2998;SDS011;1509;51.964;7.628;2022-07-29T10:55:29;5.37;;;3.63;;
2998;SDS011;1509;51.964;7.628;2022-07-29T10:58:12;6.33;;;3.53;;
2998;SDS011;1509;51.964;7.628;2022-07-29T11:00:39;5.93;;;3.30;;
2998;SDS011;1509;51.964;7.628;2022-07-29T11:03:05;6.67;;;4.40;;
2998;SDS011;1509;51.964;7.628;2022-07-29T11:05:30;5.67;;;4.33;;
2998;SDS011;1509;51.964;7.628;2022-07-29T11:08:20;6.70;;;4.40;;
2998;SDS011;1509;51.964;7.628;2022-07-29T11:10:48;5.80;;;3.40;;
2998;SDS011;1509;51.964;7.628;2022-07-29T11:14:01;7.13;;;3.50;;
2998;SDS011;1509;51.964;7.628;2022-07-29T11:16:07;5.67;;;3.00;;
2998;SDS011;1509;51.964;7.628;2022-07-29T11:18:32;6.70;;;4.13;;
2998;SDS011;1509;51.964;7.628;2022-07-29T11:20:58;4.90;;;3.50;;
2998;SDS011;1509;51.964;7.628;2022-07-29T11:23:28;4.80;;;3.70;;
2998;SDS011;1509;51.964;7.628;2022-07-29T11:31:54;4.87;;;4.37;;
2998;SDS011;1509;51.964;7.628;2022-07-29T11:39:41;7.17;;;4.00;;
2998;SDS011;1509;51.964;7.628;2022-07-29T11:42:53;6.00;;;3.60;;
2998;SDS011;1509;51.964;7.628;2022-07-29T11:44:58;7.87;;;3.77;;
2998;SDS011;1509;51.964;7.628;2022-07-29T11:47:37;6.67;;;4.70;;
2998;SDS011;1509;51.964;7.628;2022-07-29T11:50:06;7.60;;;3.83;;
2998;SDS011;1509;51.964;7.628;2022-07-29T11:52:36;5.03;;;3.93;;
2998;SDS011;1509;51.964;7.628;2022-07-29T11:55:16;4.67;;;3.50;;
2998;SDS011;1509;51.964;7.628;2022-07-29T11:57:51;7.83;;;4.03;;
2998;SDS011;1509;51.964;7.628;2022-07-29T12:00:37;8.57;;;3.80;;
2998;SDS011;1509;51.964;7.628;2022-07-29T12:03:08;7.17;;;4.00;;
2998;SDS011;1509;51.964;7.628;2022-07-29T12:05:42;5.73;;;4.40;;
2998;SDS011;1509;51.964;7.628;2022-07-29T12:10:40;7.10;;;4.37;;
2998;SDS011;1509;51.964;7.628;2022-07-29T12:13:07;7.07;;;4.63;;
2998;SDS011;1509;51.964;7.628;2022-07-29T12:15:34;10.13;;;4.93;;
2998;SDS011;1509;51.964;7.628;2022-07-29T12:18:09;6.13;;;4.20;;
2998;SDS011;1509;51.964;7.628;2022-07-29T12:20:39;7.57;;;5.33;;
2998;SDS011;1509;51.964;7.628;2022-07-29T12:23:05;9.43;;;5.00;;
2998;SDS011;1509;51.964;7.628;2022-07-29T12:25:33;10.13;;;4.77;;
2998;SDS011;1509;51.964;7.628;2022-07-29T12:28:01;8.23;;;4.60;;
2998;SDS011;1509;51.964;7.628;2022-07-29T12:30:48;13.20;;;6.50;;
2998;SDS011;1509;51.964;7.628;2022-07-29T12:35:44;8.93;;;4.80;;
2998;SDS011;1509;51.964;7.628;2022-07-29T12:38:11;5.27;;;3.50;;
2998;SDS011;1509;51.964;7.628;2022-07-29T12:40:38;8.80;;;4.80;;
2998;SDS011;1509;51.964;7.628;2022-07-29T12:43:05;7.87;;;4.00;;
2998;SDS011;1509;51.964;7.628;2022-07-29T12:45:39;9.37;;;5.40;;
2998;SDS011;1509;51.964;7.628;2022-07-29T12:48:05;10.30;;;4.27;;
2998;SDS011;1509;51.964;7.628;2022-07-29T12:50:34;10.77;;;4.67;;
2998;SDS011;1509;51.964;7.628;2022-07-29T12:53:16;6.90;;;4.87;;
2998;SDS011;1509;51.964;7.628;2022-07-29T12:55:43;6.00;;;4.30;;
2998;SDS011;1509;51.964;7.628;2022-07-29T12:58:13;7.30;;;5.00;;
2998;SDS011;1509;51.964;7.628;2022-07-29T13:00:59;4.83;;;4.40;;
2998;SDS011;1509;51.964;7.628;2022-07-29T13:03:25;16.17;;;8.30;;
2998;SDS011;1509;51.964;7.628;2022-07-29T13:05:50;5.13;;;4.60;;
2998;SDS011;1509;51.964;7.628;2022-07-29T13:08:17;8.00;;;4.80;;
2998;SDS011;1509;51.964;7.628;2022-07-29T13:10:45;6.90;;;4.17;;
2998;SDS011;1509;51.964;7.628;2022-07-29T13:13:12;5.40;;;4.63;;
2998;SDS011;1509;51.964;7.628;2022-07-29T13:15:40;6.83;;;4.30;;
2998;SDS011;1509;51.964;7.628;2022-07-29T13:18:26;7.07;;;4.60;;
2998;SDS011;1509;51.964;7.628;2022-07-29T13:20:53;7.30;;;4.60;;
2998;SDS011;1509;51.964;7.628;2022-07-29T13:23:19;5.30;;;3.83;;
2998;SDS011;1509;51.964;7.628;2022-07-29T13:25:44;8.20;;;4.10;;
2998;SDS011;1509;51.964;7.628;2022-07-29T13:28:10;5.67;;;3.70;;
2998;SDS011;1509;51.964;7.628;2022-07-29T13:30:36;5.57;;;4.00;;
2998;SDS011;1509;51.964;7.628;2022-07-29T13:33:02;6.43;;;4.10;;
2998;SDS011;1509;51.964;7.628;2022-07-29T13:35:28;7.20;;;4.13;;
2998;SDS011;1509;51.964;7.628;2022-07-29T13:37:56;7.37;;;3.60;;
2998;SDS011;1509;51.964;7.628;2022-07-29T13:40:22;5.90;;;3.80;;
2998;SDS011;1509;51.964;7.628;2022-07-29T13:42:47;6.47;;;3.73;;
2998;SDS011;1509;51.964;7.628;2022-07-29T13:45:13;4.90;;;3.63;;
2998;SDS011;1509;51.964;7.628;2022-07-29T13:47:39;7.13;;;4.53;;
2998;SDS011;1509;51.964;7.628;2022-07-29T13:50:05;6.90;;;3.80;;
2998;SDS011;1509;51.964;7.628;2022-07-29T13:52:32;5.37;;;3.20;;
2998;SDS011;1509;51.964;7.628;2022-07-29T13:54:58;6.07;;;3.37;;
2998;SDS011;1509;51.964;7.628;2022-07-29T13:57:24;4.80;;;3.27;;
2998;SDS011;1509;51.964;7.628;2022-07-29T13:59:50;5.10;;;3.50;;
2998;SDS011;1509;51.964;7.628;2022-07-29T14:02:16;4.77;;;3.10;;
2998;SDS011;1509;51.964;7.628;2022-07-29T14:04:42;4.20;;;2.93;;
2998;SDS011;1509;51.964;7.628;2022-07-29T14:07:08;5.17;;;3.20;;
2998;SDS011;1509;51.964;7.628;2022-07-29T14:09:35;6.10;;;3.33;;
2998;SDS011;1509;51.964;7.628;2022-07-29T14:12:00;7.23;;;4.40;;
2998;SDS011;1509;51.964;7.628;2022-07-29T14:14:27;7.93;;;2.97;;
2998;SDS011;1509;51.964;7.628;2022-07-29T14:16:54;4.57;;;3.60;;
2998;SDS011;1509;51.964;7.628;2022-07-29T14:19:19;7.13;;;4.97;;
2998;SDS011;1509;51.964;7.628;2022-07-29T14:21:45;6.80;;;3.40;;
2998;SDS011;1509;51.964;7.628;2022-07-29T14:24:10;5.20;;;2.83;;
2998;SDS011;1509;51.964;7.628;2022-07-29T14:26:36;5.93;;;3.20;;
2998;SDS011;1509;51.964;7.628;2022-07-29T14:29:02;8.57;;;3.40;;
2998;SDS011;1509;51.964;7.628;2022-07-29T14:31:27;9.77;;;3.50;;
2998;SDS011;1509;51.964;7.628;2022-07-29T14:33:53;4.83;;;3.40;;
2998;SDS011;1509;51.964;7.628;2022-07-29T14:36:19;8.10;;;3.63;;
2998;SDS011;1509;51.964;7.628;2022-07-29T14:38:44;5.30;;;3.00;;
2998;SDS011;1509;51.964;7.628;2022-07-29T14:41:10;7.00;;;3.13;;
2998;SDS011;1509;51.964;7.628;2022-07-29T14:43:35;8.13;;;3.40;;
2998;SDS011;1509;51.964;7.628;2022-07-29T14:46:01;8.03;;;5.30;;
2998;SDS011;1509;51.964;7.628;2022-07-29T14:48:27;11.27;;;3.57;;
2998;SDS011;1509;51.964;7.628;2022-07-29T14:50:53;5.87;;;3.30;;
2998;SDS011;1509;51.964;7.628;2022-07-29T14:53:20;7.30;;;3.67;;
2998;SDS011;1509;51.964;7.628;2022-07-29T14:55:46;3.83;;;3.43;;
2998;SDS011;1509;51.964;7.628;2022-07-29T14:58:12;7.47;;;3.47;;
2998;SDS011;1509;51.964;7.628;2022-07-29T15:00:38;4.07;;;2.60;;
2998;SDS011;1509;51.964;7.628;2022-07-29T15:03:04;3.37;;;2.77;;
2998;SDS011;1509;51.964;7.628;2022-07-29T15:05:30;4.87;;;3.60;;
2998;SDS011;1509;51.964;7.628;2022-07-29T15:07:56;4.50;;;3.03;;
2998;SDS011;1509;51.964;7.628;2022-07-29T15:10:23;6.70;;;3.40;;
2998;SDS011;1509;51.964;7.628;2022-07-29T15:12:51;7.47;;;3.50;;
2998;SDS011;1509;51.964;7.628;2022-07-29T15:15:20;5.97;;;4.63;;
2998;SDS011;1509;51.964;7.628;2022-07-29T15:17:45;6.50;;;3.00;;
2998;SDS011;1509;51.964;7.628;2022-07-29T15:20:11;5.67;;;3.30;;
2998;SDS011;1509;51.964;7.628;2022-07-29T15:22:37;8.87;;;3.50;;
2998;SDS011;1509;51.964;7.628;2022-07-29T15:25:03;4.77;;;2.83;;
2998;SDS011;1509;51.964;7.628;2022-07-29T15:27:30;6.43;;;2.80;;
2998;SDS011;1509;51.964;7.628;2022-07-29T15:29:56;8.40;;;3.87;;
2998;SDS011;1509;51.964;7.628;2022-07-29T15:32:21;4.53;;;3.20;;
2998;SDS011;1509;51.964;7.628;2022-07-29T15:34:47;6.20;;;3.37;;
2998;SDS011;1509;51.964;7.628;2022-07-29T15:37:13;6.77;;;2.97;;
2998;SDS011;1509;51.964;7.628;2022-07-29T15:39:38;7.00;;;3.00;;
2998;SDS011;1509;51.964;7.628;2022-07-29T15:42:04;9.67;;;3.10;;
2998;SDS011;1509;51.964;7.628;2022-07-29T15:44:30;4.80;;;3.03;;
2998;SDS011;1509;51.964;7.628;2022-07-29T15:46:55;5.57;;;3.10;;
2998;SDS011;1509;51.964;7.628;2022-07-29T15:49:38;5.17;;;3.13;;
2998;SDS011;1509;51.964;7.628;2022-07-29T15:52:08;9.17;;;2.90;;
2998;SDS011;1509;51.964;7.628;2022-07-29T15:54:36;6.23;;;3.00;;
2998;SDS011;1509;51.964;7.628;2022-07-29T15:57:04;6.00;;;4.70;;
2998;SDS011;1509;51.964;7.628;2022-07-29T15:59:30;4.40;;;2.63;;
2998;SDS011;1509;51.964;7.628;2022-07-29T16:01:56;7.27;;;3.63;;
2998;SDS011;1509;51.964;7.628;2022-07-29T16:04:21;5.40;;;2.53;;
2998;SDS011;1509;51.964;7.628;2022-07-29T16:06:48;5.10;;;2.67;;
2998;SDS011;1509;51.964;7.628;2022-07-29T16:09:14;5.20;;;3.43;;
2998;SDS011;1509;51.964;7.628;2022-07-29T16:11:40;4.77;;;3.10;;